sensor_id;sensor_type;location;lat;lon;timestamp;P1;durP1;ratioP1;P2;durP2;ratioP2
29728;SDS011;20055;51.498;11.960;2023-07-28T00:01:44;4.63;;;0.88;;
29728;SDS011;20055;51.498;11.960;2023-07-28T00:04:10;0.82;;;0.70;;
29728;SDS011;20055;51.498;11.960;2023-07-28T00:06:37;4.13;;;0.82;;
29728;SDS011;20055;51.498;11.960;2023-07-28T00:09:03;1.48;;;1.10;;
29728;SDS011;20055;51.498;11.960;2023-07-28T00:11:29;4.40;;;0.70;;
29728;SDS011;20055;51.498;11.960;2023-07-28T00:13:56;1.98;;;0.90;;
29728;SDS011;20055;51.498;11.960;2023-07-28T00:16:22;5.07;;;1.00;;
29728;SDS011;20055;51.498;11.960;2023-07-28T00:18:48;1.08;;;0.82;;
29728;SDS011;20055;51.498;11.960;2023-07-28T00:21:15;3.35;;;0.80;;
29728;SDS011;20055;51.498;11.960;2023-07-28T00:23:41;4.18;;;1.13;;
29728;SDS011;20055;51.498;11.960;2023-07-28T00:26:07;1.85;;;0.90;;
29728;SDS011;20055;51.498;11.960;2023-07-28T00:28:33;2.08;;;1.10;;
29728;SDS011;20055;51.498;11.960;2023-07-28T00:31:00;3.47;;;1.02;;
29728;SDS011;20055;51.498;11.960;2023-07-28T00:33:26;2.22;;;0.98;;
29728;SDS011;20055;51.498;11.960;2023-07-28T00:35:52;1.92;;;0.93;;
29728;SDS011;20055;51.498;11.960;2023-07-28T00:38:18;3.20;;;1.00;;
29728;SDS011;20055;51.498;11.960;2023-07-28T00:40:45;3.20;;;1.00;;
29728;SDS011;20055;51.498;11.960;2023-07-28T00:43:12;2.88;;;1.00;;
29728;SDS011;20055;51.498;11.960;2023-07-28T00:45:38;1.83;;;1.20;;
29728;SDS011;20055;51.498;11.960;2023-07-28T00:48:06;5.57;;;1.30;;
29728;SDS011;20055;51.498;11.960;2023-07-28T00:50:41;5.65;;;1.20;;
29728;SDS011;20055;51.498;11.960;2023-07-28T00:53:11;1.15;;;1.00;;
29728;SDS011;20055;51.498;11.960;2023-07-28T00:55:37;4.57;;;1.42;;
29728;SDS011;20055;51.498;11.960;2023-07-28T00:58:04;3.95;;;1.33;;
29728;SDS011;20055;51.498;11.960;2023-07-28T01:00:30;4.13;;;1.08;;
29728;SDS011;20055;51.498;11.960;2023-07-28T01:02:57;4.32;;;0.95;;
29728;SDS011;20055;51.498;11.960;2023-07-28T01:05:25;4.18;;;1.20;;
29728;SDS011;20055;51.498;11.960;2023-07-28T01:08:12;5.95;;;1.00;;
29728;SDS011;20055;51.498;11.960;2023-07-28T01:10:49;1.92;;;1.13;;
29728;SDS011;20055;51.498;11.960;2023-07-28T01:13:16;4.78;;;1.10;;
29728;SDS011;20055;51.498;11.960;2023-07-28T01:15:42;1.70;;;0.80;;
29728;SDS011;20055;51.498;11.960;2023-07-28T01:18:08;5.30;;;1.10;;
29728;SDS011;20055;51.498;11.960;2023-07-28T01:20:35;1.15;;;1.05;;
29728;SDS011;20055;51.498;11.960;2023-07-28T01:23:14;4.65;;;1.13;;
29728;SDS011;20055;51.498;11.960;2023-07-28T01:28:20;12.10;;;1.27;;
29728;SDS011;20055;51.498;11.960;2023-07-28T01:30:47;2.53;;;1.05;;
29728;SDS011;20055;51.498;11.960;2023-07-28T01:33:13;3.17;;;1.05;;
29728;SDS011;20055;51.498;11.960;2023-07-28T01:35:39;3.90;;;1.10;;
29728;SDS011;20055;51.498;11.960;2023-07-28T01:38:06;6.38;;;2.35;;
29728;SDS011;20055;51.498;11.960;2023-07-28T01:40:32;3.28;;;1.00;;
29728;SDS011;20055;51.498;11.960;2023-07-28T01:42:58;1.92;;;0.80;;
29728;SDS011;20055;51.498;11.960;2023-07-28T01:45:25;2.65;;;0.75;;
29728;SDS011;20055;51.498;11.960;2023-07-28T01:47:51;5.30;;;1.08;;
29728;SDS011;20055;51.498;11.960;2023-07-28T01:50:17;3.80;;;1.20;;
29728;SDS011;20055;51.498;11.960;2023-07-28T01:52:43;3.20;;;1.10;;
29728;SDS011;20055;51.498;11.960;2023-07-28T01:55:10;1.13;;;0.70;;
29728;SDS011;20055;51.498;11.960;2023-07-28T01:57:38;5.88;;;0.85;;
29728;SDS011;20055;51.498;11.960;2023-07-28T02:00:05;1.45;;;0.70;;
29728;SDS011;20055;51.498;11.960;2023-07-28T02:02:41;0.82;;;0.70;;
29728;SDS011;20055;51.498;11.960;2023-07-28T02:05:07;8.05;;;1.83;;
29728;SDS011;20055;51.498;11.960;2023-07-28T02:07:34;2.33;;;0.80;;
29728;SDS011;20055;51.498;11.960;2023-07-28T02:10:00;4.13;;;0.80;;
29728;SDS011;20055;51.498;11.960;2023-07-28T02:12:26;1.33;;;0.77;;
29728;SDS011;20055;51.498;11.960;2023-07-28T02:14:52;0.98;;;0.70;;
29728;SDS011;20055;51.498;11.960;2023-07-28T02:17:19;15.52;;;1.20;;
29728;SDS011;20055;51.498;11.960;2023-07-28T02:19:45;2.45;;;0.95;;
29728;SDS011;20055;51.498;11.960;2023-07-28T02:22:12;6.38;;;1.70;;
29728;SDS011;20055;51.498;11.960;2023-07-28T02:24:38;1.60;;;0.93;;
29728;SDS011;20055;51.498;11.960;2023-07-28T02:27:05;1.63;;;1.00;;
29728;SDS011;20055;51.498;11.960;2023-07-28T02:29:31;3.55;;;1.10;;
29728;SDS011;20055;51.498;11.960;2023-07-28T02:31:57;6.53;;;0.93;;
29728;SDS011;20055;51.498;11.960;2023-07-28T02:34:24;3.40;;;0.70;;
29728;SDS011;20055;51.498;11.960;2023-07-28T02:36:50;1.25;;;0.75;;
29728;SDS011;20055;51.498;11.960;2023-07-28T02:39:16;6.32;;;0.90;;
29728;SDS011;20055;51.498;11.960;2023-07-28T02:41:43;1.42;;;0.70;;
29728;SDS011;20055;51.498;11.960;2023-07-28T02:44:09;1.73;;;0.80;;
29728;SDS011;20055;51.498;11.960;2023-07-28T02:46:36;5.35;;;0.80;;
29728;SDS011;20055;51.498;11.960;2023-07-28T02:49:02;1.27;;;0.90;;
29728;SDS011;20055;51.498;11.960;2023-07-28T02:51:30;2.25;;;0.88;;
29728;SDS011;20055;51.498;11.960;2023-07-28T02:53:57;0.95;;;0.82;;
29728;SDS011;20055;51.498;11.960;2023-07-28T02:56:23;2.95;;;0.90;;
29728;SDS011;20055;51.498;11.960;2023-07-28T02:58:49;5.07;;;0.90;;
29728;SDS011;20055;51.498;11.960;2023-07-28T03:01:16;3.00;;;0.80;;
29728;SDS011;20055;51.498;11.960;2023-07-28T03:03:43;2.83;;;0.80;;
29728;SDS011;20055;51.498;11.960;2023-07-28T03:06:11;2.03;;;0.80;;
29728;SDS011;20055;51.498;11.960;2023-07-28T03:08:39;2.25;;;0.95;;
29728;SDS011;20055;51.498;11.960;2023-07-28T03:11:23;1.75;;;0.90;;
29728;SDS011;20055;51.498;11.960;2023-07-28T03:13:49;3.78;;;0.70;;
29728;SDS011;20055;51.498;11.960;2023-07-28T03:16:16;3.35;;;0.90;;
29728;SDS011;20055;51.498;11.960;2023-07-28T03:18:42;2.63;;;0.90;;
29728;SDS011;20055;51.498;11.960;2023-07-28T03:21:09;3.72;;;0.98;;
29728;SDS011;20055;51.498;11.960;2023-07-28T03:23:35;3.67;;;1.10;;
29728;SDS011;20055;51.498;11.960;2023-07-28T03:26:02;2.30;;;1.00;;
29728;SDS011;20055;51.498;11.960;2023-07-28T03:28:28;1.20;;;0.95;;
29728;SDS011;20055;51.498;11.960;2023-07-28T03:30:54;2.58;;;0.70;;
29728;SDS011;20055;51.498;11.960;2023-07-28T03:33:21;3.47;;;0.95;;
29728;SDS011;20055;51.498;11.960;2023-07-28T03:35:47;6.78;;;0.95;;
29728;SDS011;20055;51.498;11.960;2023-07-28T03:38:16;1.17;;;1.00;;
29728;SDS011;20055;51.498;11.960;2023-07-28T03:40:43;2.10;;;0.90;;
29728;SDS011;20055;51.498;11.960;2023-07-28T03:43:09;3.13;;;1.30;;
29728;SDS011;20055;51.498;11.960;2023-07-28T03:45:36;1.58;;;0.73;;
29728;SDS011;20055;51.498;11.960;2023-07-28T03:48:02;3.53;;;1.00;;
29728;SDS011;20055;51.498;11.960;2023-07-28T03:50:29;5.13;;;0.88;;
29728;SDS011;20055;51.498;11.960;2023-07-28T03:52:55;1.70;;;1.08;;
29728;SDS011;20055;51.498;11.960;2023-07-28T03:55:21;2.20;;;0.90;;
29728;SDS011;20055;51.498;11.960;2023-07-28T03:57:48;1.80;;;0.93;;
29728;SDS011;20055;51.498;11.960;2023-07-28T04:00:14;3.45;;;1.00;;
29728;SDS011;20055;51.498;11.960;2023-07-28T04:02:41;4.25;;;1.08;;
29728;SDS011;20055;51.498;11.960;2023-07-28T04:05:07;2.03;;;0.80;;
29728;SDS011;20055;51.498;11.960;2023-07-28T04:07:33;3.58;;;0.80;;
29728;SDS011;20055;51.498;11.960;2023-07-28T04:10:00;0.82;;;0.68;;
29728;SDS011;20055;51.498;11.960;2023-07-28T04:12:26;4.88;;;0.93;;
29728;SDS011;20055;51.498;11.960;2023-07-28T04:14:52;2.90;;;1.15;;
29728;SDS011;20055;51.498;11.960;2023-07-28T04:17:18;3.42;;;0.80;;
29728;SDS011;20055;51.498;11.960;2023-07-28T04:19:48;4.03;;;1.08;;
29728;SDS011;20055;51.498;11.960;2023-07-28T04:22:14;3.42;;;0.80;;
29728;SDS011;20055;51.498;11.960;2023-07-28T04:24:47;1.83;;;1.00;;
29728;SDS011;20055;51.498;11.960;2023-07-28T04:27:14;2.20;;;1.08;;
29728;SDS011;20055;51.498;11.960;2023-07-28T04:29:41;4.55;;;1.05;;
29728;SDS011;20055;51.498;11.960;2023-07-28T04:32:09;2.58;;;1.02;;
29728;SDS011;20055;51.498;11.960;2023-07-28T04:34:36;4.80;;;1.13;;
29728;SDS011;20055;51.498;11.960;2023-07-28T04:37:12;1.63;;;0.98;;
29728;SDS011;20055;51.498;11.960;2023-07-28T04:39:55;3.10;;;0.93;;
29728;SDS011;20055;51.498;11.960;2023-07-28T04:42:22;4.00;;;1.15;;
29728;SDS011;20055;51.498;11.960;2023-07-28T04:44:48;2.10;;;1.00;;
29728;SDS011;20055;51.498;11.960;2023-07-28T04:47:16;8.07;;;0.90;;
29728;SDS011;20055;51.498;11.960;2023-07-28T04:49:42;1.80;;;0.90;;
29728;SDS011;20055;51.498;11.960;2023-07-28T04:52:09;5.13;;;0.80;;
29728;SDS011;20055;51.498;11.960;2023-07-28T04:54:56;1.52;;;0.80;;
29728;SDS011;20055;51.498;11.960;2023-07-28T04:57:22;5.60;;;1.20;;
29728;SDS011;20055;51.498;11.960;2023-07-28T04:59:48;1.25;;;0.60;;
29728;SDS011;20055;51.498;11.960;2023-07-28T05:02:14;5.97;;;0.93;;
29728;SDS011;20055;51.498;11.960;2023-07-28T05:04:41;5.10;;;0.85;;
29728;SDS011;20055;51.498;11.960;2023-07-28T05:07:07;1.90;;;0.70;;
29728;SDS011;20055;51.498;11.960;2023-07-28T05:09:33;4.63;;;0.80;;
29728;SDS011;20055;51.498;11.960;2023-07-28T05:12:00;1.98;;;0.80;;
29728;SDS011;20055;51.498;11.960;2023-07-28T05:14:26;2.13;;;0.63;;
29728;SDS011;20055;51.498;11.960;2023-07-28T05:16:53;0.82;;;0.68;;
29728;SDS011;20055;51.498;11.960;2023-07-28T05:19:19;2.47;;;0.90;;
29728;SDS011;20055;51.498;11.960;2023-07-28T05:22:04;0.93;;;0.70;;
29728;SDS011;20055;51.498;11.960;2023-07-28T05:24:44;0.73;;;0.68;;
29728;SDS011;20055;51.498;11.960;2023-07-28T05:27:11;0.60;;;0.57;;
29728;SDS011;20055;51.498;11.960;2023-07-28T05:29:38;2.20;;;0.80;;
29728;SDS011;20055;51.498;11.960;2023-07-28T05:32:06;3.83;;;0.68;;
29728;SDS011;20055;51.498;11.960;2023-07-28T05:34:51;1.92;;;0.70;;
29728;SDS011;20055;51.498;11.960;2023-07-28T05:37:17;2.08;;;0.75;;
29728;SDS011;20055;51.498;11.960;2023-07-28T05:39:44;1.45;;;0.82;;
29728;SDS011;20055;51.498;11.960;2023-07-28T05:42:10;3.15;;;0.90;;
29728;SDS011;20055;51.498;11.960;2023-07-28T05:44:36;3.15;;;0.60;;
29728;SDS011;20055;51.498;11.960;2023-07-28T05:47:03;2.78;;;0.70;;
29728;SDS011;20055;51.498;11.960;2023-07-28T05:49:31;1.88;;;0.50;;
29728;SDS011;20055;51.498;11.960;2023-07-28T05:51:57;0.70;;;0.55;;
29728;SDS011;20055;51.498;11.960;2023-07-28T05:54:24;1.92;;;0.70;;
29728;SDS011;20055;51.498;11.960;2023-07-28T05:56:50;2.88;;;0.73;;
29728;SDS011;20055;51.498;11.960;2023-07-28T05:59:16;2.08;;;0.60;;
29728;SDS011;20055;51.498;11.960;2023-07-28T06:01:43;5.30;;;0.65;;
29728;SDS011;20055;51.498;11.960;2023-07-28T06:04:28;3.05;;;0.85;;
29728;SDS011;20055;51.498;11.960;2023-07-28T06:06:57;2.33;;;0.60;;
29728;SDS011;20055;51.498;11.960;2023-07-28T06:09:23;5.20;;;1.10;;
29728;SDS011;20055;51.498;11.960;2023-07-28T06:11:50;1.08;;;0.75;;
29728;SDS011;20055;51.498;11.960;2023-07-28T06:14:16;1.40;;;0.80;;
29728;SDS011;20055;51.498;11.960;2023-07-28T06:16:42;4.88;;;0.60;;
29728;SDS011;20055;51.498;11.960;2023-07-28T06:19:09;1.98;;;0.73;;
29728;SDS011;20055;51.498;11.960;2023-07-28T06:24:49;7.85;;;0.77;;
29728;SDS011;20055;51.498;11.960;2023-07-28T06:27:20;0.85;;;0.70;;
29728;SDS011;20055;51.498;11.960;2023-07-28T06:29:48;3.33;;;0.65;;
29728;SDS011;20055;51.498;11.960;2023-07-28T06:32:19;2.22;;;0.80;;
29728;SDS011;20055;51.498;11.960;2023-07-28T06:34:46;2.65;;;0.80;;
29728;SDS011;20055;51.498;11.960;2023-07-28T06:37:12;1.17;;;0.60;;
29728;SDS011;20055;51.498;11.960;2023-07-28T06:39:39;1.90;;;0.75;;
29728;SDS011;20055;51.498;11.960;2023-07-28T06:42:07;3.33;;;0.50;;
29728;SDS011;20055;51.498;11.960;2023-07-28T06:44:37;0.45;;;0.43;;
29728;SDS011;20055;51.498;11.960;2023-07-28T06:47:03;2.35;;;0.80;;
29728;SDS011;20055;51.498;11.960;2023-07-28T06:49:32;1.25;;;0.63;;
29728;SDS011;20055;51.498;11.960;2023-07-28T06:52:00;1.13;;;0.50;;
29728;SDS011;20055;51.498;11.960;2023-07-28T06:54:26;5.47;;;0.80;;
29728;SDS011;20055;51.498;11.960;2023-07-28T06:56:53;1.75;;;0.55;;
29728;SDS011;20055;51.498;11.960;2023-07-28T06:59:19;0.50;;;0.50;;
29728;SDS011;20055;51.498;11.960;2023-07-28T07:01:46;2.03;;;0.50;;
29728;SDS011;20055;51.498;11.960;2023-07-28T07:04:12;2.05;;;0.55;;
29728;SDS011;20055;51.498;11.960;2023-07-28T07:06:38;1.33;;;0.60;;
29728;SDS011;20055;51.498;11.960;2023-07-28T07:09:05;0.60;;;0.57;;
29728;SDS011;20055;51.498;11.960;2023-07-28T07:11:31;4.97;;;0.82;;
29728;SDS011;20055;51.498;11.960;2023-07-28T07:13:58;1.17;;;0.50;;
29728;SDS011;20055;51.498;11.960;2023-07-28T07:16:24;1.08;;;0.52;;
29728;SDS011;20055;51.498;11.960;2023-07-28T07:18:50;1.15;;;0.70;;
29728;SDS011;20055;51.498;11.960;2023-07-28T07:21:17;3.10;;;0.63;;
29728;SDS011;20055;51.498;11.960;2023-07-28T07:23:43;0.90;;;0.80;;
29728;SDS011;20055;51.498;11.960;2023-07-28T07:26:24;1.10;;;0.73;;
29728;SDS011;20055;51.498;11.960;2023-07-28T07:28:50;1.33;;;0.70;;
29728;SDS011;20055;51.498;11.960;2023-07-28T07:31:17;1.33;;;0.80;;
29728;SDS011;20055;51.498;11.960;2023-07-28T07:33:44;2.88;;;0.60;;
29728;SDS011;20055;51.498;11.960;2023-07-28T07:36:17;3.30;;;0.70;;
29728;SDS011;20055;51.498;11.960;2023-07-28T07:38:44;6.38;;;0.60;;
29728;SDS011;20055;51.498;11.960;2023-07-28T07:41:17;2.47;;;0.95;;
29728;SDS011;20055;51.498;11.960;2023-07-28T07:43:51;1.45;;;0.40;;
29728;SDS011;20055;51.498;11.960;2023-07-28T07:46:19;1.30;;;0.57;;
29728;SDS011;20055;51.498;11.960;2023-07-28T07:48:45;1.98;;;0.80;;
29728;SDS011;20055;51.498;11.960;2023-07-28T07:51:12;2.35;;;0.70;;
29728;SDS011;20055;51.498;11.960;2023-07-28T07:53:38;2.10;;;0.70;;
29728;SDS011;20055;51.498;11.960;2023-07-28T07:56:04;2.42;;;0.77;;
29728;SDS011;20055;51.498;11.960;2023-07-28T07:58:31;1.48;;;0.85;;
29728;SDS011;20055;51.498;11.960;2023-07-28T08:00:59;3.08;;;0.85;;
29728;SDS011;20055;51.498;11.960;2023-07-28T08:03:25;2.03;;;0.73;;
29728;SDS011;20055;51.498;11.960;2023-07-28T08:05:52;1.33;;;0.73;;
29728;SDS011;20055;51.498;11.960;2023-07-28T08:08:19;6.25;;;0.85;;
29728;SDS011;20055;51.498;11.960;2023-07-28T08:10:46;1.77;;;1.00;;
29728;SDS011;20055;51.498;11.960;2023-07-28T08:13:13;3.10;;;1.25;;
29728;SDS011;20055;51.498;11.960;2023-07-28T08:15:43;4.72;;;1.83;;
29728;SDS011;20055;51.498;11.960;2023-07-28T08:18:10;3.53;;;1.15;;
29728;SDS011;20055;51.498;11.960;2023-07-28T08:20:38;8.93;;;1.08;;
29728;SDS011;20055;51.498;11.960;2023-07-28T08:23:04;1.75;;;1.13;;
29728;SDS011;20055;51.498;11.960;2023-07-28T08:25:31;4.57;;;1.20;;
29728;SDS011;20055;51.498;11.960;2023-07-28T08:27:57;5.35;;;1.15;;
29728;SDS011;20055;51.498;11.960;2023-07-28T08:30:23;1.20;;;0.90;;
29728;SDS011;20055;51.498;11.960;2023-07-28T08:32:50;3.53;;;1.48;;
29728;SDS011;20055;51.498;11.960;2023-07-28T08:35:17;2.00;;;0.98;;
29728;SDS011;20055;51.498;11.960;2023-07-28T08:37:43;7.93;;;1.00;;
29728;SDS011;20055;51.498;11.960;2023-07-28T08:40:10;4.72;;;1.67;;
29728;SDS011;20055;51.498;11.960;2023-07-28T08:42:38;3.63;;;1.05;;
29728;SDS011;20055;51.498;11.960;2023-07-28T08:45:07;9.13;;;1.08;;
29728;SDS011;20055;51.498;11.960;2023-07-28T08:47:34;10.40;;;1.27;;
29728;SDS011;20055;51.498;11.960;2023-07-28T08:50:01;8.82;;;1.17;;
29728;SDS011;20055;51.498;11.960;2023-07-28T08:52:29;17.63;;;1.77;;
29728;SDS011;20055;51.498;11.960;2023-07-28T08:54:56;5.88;;;1.13;;
29728;SDS011;20055;51.498;11.960;2023-07-28T08:57:22;19.10;;;1.73;;
29728;SDS011;20055;51.498;11.960;2023-07-28T08:59:49;12.23;;;1.33;;
29728;SDS011;20055;51.498;11.960;2023-07-28T09:02:16;8.57;;;1.55;;
29728;SDS011;20055;51.498;11.960;2023-07-28T09:04:44;7.78;;;1.30;;
29728;SDS011;20055;51.498;11.960;2023-07-28T09:07:11;17.25;;;1.33;;
29728;SDS011;20055;51.498;11.960;2023-07-28T09:09:38;15.95;;;1.70;;
29728;SDS011;20055;51.498;11.960;2023-07-28T09:12:06;12.50;;;1.50;;
29728;SDS011;20055;51.498;11.960;2023-07-28T09:14:37;9.70;;;1.88;;
29728;SDS011;20055;51.498;11.960;2023-07-28T09:17:10;9.43;;;1.10;;
29728;SDS011;20055;51.498;11.960;2023-07-28T09:19:51;13.50;;;1.30;;
29728;SDS011;20055;51.498;11.960;2023-07-28T09:22:18;3.83;;;1.08;;
29728;SDS011;20055;51.498;11.960;2023-07-28T09:24:47;3.15;;;1.25;;
29728;SDS011;20055;51.498;11.960;2023-07-28T09:27:21;6.78;;;1.25;;
29728;SDS011;20055;51.498;11.960;2023-07-28T09:29:53;7.40;;;1.23;;
29728;SDS011;20055;51.498;11.960;2023-07-28T09:32:27;8.48;;;1.40;;
29728;SDS011;20055;51.498;11.960;2023-07-28T09:35:06;6.60;;;1.38;;
29728;SDS011;20055;51.498;11.960;2023-07-28T09:37:36;8.27;;;1.23;;
29728;SDS011;20055;51.498;11.960;2023-07-28T09:40:05;7.20;;;1.90;;
29728;SDS011;20055;51.498;11.960;2023-07-28T09:42:39;10.27;;;1.77;;
29728;SDS011;20055;51.498;11.960;2023-07-28T09:45:07;4.57;;;1.33;;
29728;SDS011;20055;51.498;11.960;2023-07-28T09:47:35;5.45;;;1.58;;
29728;SDS011;20055;51.498;11.960;2023-07-28T09:50:03;11.10;;;1.50;;
29728;SDS011;20055;51.498;11.960;2023-07-28T09:52:33;3.30;;;1.42;;
29728;SDS011;20055;51.498;11.960;2023-07-28T09:55:05;2.78;;;1.35;;
29728;SDS011;20055;51.498;11.960;2023-07-28T09:57:36;1.60;;;1.35;;
29728;SDS011;20055;51.498;11.960;2023-07-28T10:00:07;4.00;;;1.13;;
29728;SDS011;20055;51.498;11.960;2023-07-28T10:02:38;3.72;;;1.55;;
29728;SDS011;20055;51.498;11.960;2023-07-28T10:05:05;3.97;;;1.65;;
29728;SDS011;20055;51.498;11.960;2023-07-28T10:07:34;5.38;;;1.33;;
29728;SDS011;20055;51.498;11.960;2023-07-28T10:10:04;3.50;;;1.10;;
29728;SDS011;20055;51.498;11.960;2023-07-28T10:15:15;2.20;;;1.20;;
29728;SDS011;20055;51.498;11.960;2023-07-28T10:17:43;5.53;;;1.30;;
29728;SDS011;20055;51.498;11.960;2023-07-28T10:20:27;3.60;;;1.02;;
29728;SDS011;20055;51.498;11.960;2023-07-28T10:23:07;1.42;;;0.98;;
29728;SDS011;20055;51.498;11.960;2023-07-28T10:25:34;7.45;;;0.90;;
29728;SDS011;20055;51.498;11.960;2023-07-28T10:28:02;3.88;;;1.10;;
29728;SDS011;20055;51.498;11.960;2023-07-28T10:30:34;4.32;;;1.10;;
29728;SDS011;20055;51.498;11.960;2023-07-28T10:35:58;1.80;;;1.00;;
29728;SDS011;20055;51.498;11.960;2023-07-28T10:38:28;3.22;;;0.98;;
29728;SDS011;20055;51.498;11.960;2023-07-28T10:41:17;1.67;;;1.05;;
29728;SDS011;20055;51.498;11.960;2023-07-28T10:43:45;0.93;;;0.80;;
29728;SDS011;20055;51.498;11.960;2023-07-28T10:46:16;4.10;;;1.10;;
29728;SDS011;20055;51.498;11.960;2023-07-28T10:48:45;4.47;;;0.93;;
29728;SDS011;20055;51.498;11.960;2023-07-28T10:51:19;5.18;;;1.00;;
29728;SDS011;20055;51.498;11.960;2023-07-28T10:53:55;2.72;;;0.90;;
29728;SDS011;20055;51.498;11.960;2023-07-28T10:56:21;3.40;;;1.23;;
29728;SDS011;20055;51.498;11.960;2023-07-28T10:58:56;1.13;;;1.02;;
29728;SDS011;20055;51.498;11.960;2023-07-28T11:01:39;1.70;;;1.00;;
29728;SDS011;20055;51.498;11.960;2023-07-28T11:04:07;3.55;;;0.80;;
29728;SDS011;20055;51.498;11.960;2023-07-28T11:06:34;4.80;;;1.10;;
29728;SDS011;20055;51.498;11.960;2023-07-28T11:09:02;2.45;;;0.90;;
29728;SDS011;20055;51.498;11.960;2023-07-28T11:11:31;1.65;;;1.10;;
29728;SDS011;20055;51.498;11.960;2023-07-28T11:13:58;2.00;;;0.75;;
29728;SDS011;20055;51.498;11.960;2023-07-28T11:16:24;2.90;;;1.00;;
29728;SDS011;20055;51.498;11.960;2023-07-28T11:18:51;0.95;;;0.82;;
29728;SDS011;20055;51.498;11.960;2023-07-28T11:23:47;4.80;;;0.93;;
29728;SDS011;20055;51.498;11.960;2023-07-28T11:26:14;0.77;;;0.73;;
29728;SDS011;20055;51.498;11.960;2023-07-28T11:28:40;5.32;;;1.27;;
29728;SDS011;20055;51.498;11.960;2023-07-28T11:31:07;1.08;;;0.75;;
29728;SDS011;20055;51.498;11.960;2023-07-28T11:33:35;5.10;;;0.77;;
29728;SDS011;20055;51.498;11.960;2023-07-28T11:36:02;0.88;;;0.70;;
29728;SDS011;20055;51.498;11.960;2023-07-28T11:38:28;1.00;;;0.88;;
29728;SDS011;20055;51.498;11.960;2023-07-28T11:40:55;3.08;;;0.95;;
29728;SDS011;20055;51.498;11.960;2023-07-28T11:43:22;2.97;;;1.02;;
29728;SDS011;20055;51.498;11.960;2023-07-28T11:46:00;2.70;;;0.80;;
29728;SDS011;20055;51.498;11.960;2023-07-28T11:48:48;3.47;;;1.10;;
29728;SDS011;20055;51.498;11.960;2023-07-28T11:51:15;2.97;;;0.98;;
29728;SDS011;20055;51.498;11.960;2023-07-28T11:53:41;2.05;;;1.20;;
29728;SDS011;20055;51.498;11.960;2023-07-28T11:56:07;3.90;;;0.90;;
29728;SDS011;20055;51.498;11.960;2023-07-28T11:58:34;2.60;;;1.00;;
29728;SDS011;20055;51.498;11.960;2023-07-28T12:01:00;6.28;;;1.00;;
29728;SDS011;20055;51.498;11.960;2023-07-28T12:03:35;0.95;;;0.82;;
29728;SDS011;20055;51.498;11.960;2023-07-28T12:06:05;2.60;;;1.00;;
29728;SDS011;20055;51.498;11.960;2023-07-28T12:08:36;2.75;;;1.00;;
29728;SDS011;20055;51.498;11.960;2023-07-28T12:11:02;4.38;;;1.00;;
29728;SDS011;20055;51.498;11.960;2023-07-28T12:13:29;1.63;;;1.10;;
29728;SDS011;20055;51.498;11.960;2023-07-28T12:15:55;0.77;;;0.73;;
29728;SDS011;20055;51.498;11.960;2023-07-28T12:18:22;1.70;;;0.95;;
29728;SDS011;20055;51.498;11.960;2023-07-28T12:20:50;2.47;;;1.30;;
29728;SDS011;20055;51.498;11.960;2023-07-28T12:23:21;5.78;;;1.27;;
29728;SDS011;20055;51.498;11.960;2023-07-28T12:25:49;1.88;;;1.08;;
29728;SDS011;20055;51.498;11.960;2023-07-28T12:28:19;2.30;;;1.20;;
29728;SDS011;20055;51.498;11.960;2023-07-28T12:30:46;5.03;;;1.23;;
29728;SDS011;20055;51.498;11.960;2023-07-28T12:33:14;5.60;;;1.30;;
29728;SDS011;20055;51.498;11.960;2023-07-28T12:35:46;1.95;;;1.10;;
29728;SDS011;20055;51.498;11.960;2023-07-28T12:38:13;4.63;;;1.38;;
29728;SDS011;20055;51.498;11.960;2023-07-28T12:40:39;1.17;;;1.08;;
29728;SDS011;20055;51.498;11.960;2023-07-28T12:43:07;1.38;;;1.20;;
29728;SDS011;20055;51.498;11.960;2023-07-28T12:45:34;2.97;;;1.20;;
29728;SDS011;20055;51.498;11.960;2023-07-28T12:48:01;2.30;;;1.23;;
29728;SDS011;20055;51.498;11.960;2023-07-28T12:50:27;2.50;;;1.13;;
29728;SDS011;20055;51.498;11.960;2023-07-28T12:52:55;1.70;;;1.20;;
29728;SDS011;20055;51.498;11.960;2023-07-28T12:55:21;2.58;;;1.30;;
29728;SDS011;20055;51.498;11.960;2023-07-28T12:57:48;1.92;;;1.23;;
29728;SDS011;20055;51.498;11.960;2023-07-28T13:00:14;2.95;;;1.13;;
29728;SDS011;20055;51.498;11.960;2023-07-28T13:02:42;1.48;;;1.08;;
29728;SDS011;20055;51.498;11.960;2023-07-28T13:05:09;2.15;;;1.38;;
29728;SDS011;20055;51.498;11.960;2023-07-28T13:07:37;3.30;;;1.20;;
29728;SDS011;20055;51.498;11.960;2023-07-28T13:10:06;3.45;;;1.25;;
29728;SDS011;20055;51.498;11.960;2023-07-28T13:12:37;1.63;;;1.40;;
29728;SDS011;20055;51.498;11.960;2023-07-28T13:15:04;1.52;;;1.20;;
29728;SDS011;20055;51.498;11.960;2023-07-28T13:17:31;4.68;;;1.50;;
29728;SDS011;20055;51.498;11.960;2023-07-28T13:19:58;3.70;;;1.33;;
29728;SDS011;20055;51.498;11.960;2023-07-28T13:22:24;8.27;;;2.38;;
29728;SDS011;20055;51.498;11.960;2023-07-28T13:24:52;6.93;;;1.38;;
29728;SDS011;20055;51.498;11.960;2023-07-28T13:27:19;3.90;;;1.13;;
29728;SDS011;20055;51.498;11.960;2023-07-28T13:29:46;5.60;;;1.50;;
29728;SDS011;20055;51.498;11.960;2023-07-28T13:32:22;2.97;;;1.30;;
29728;SDS011;20055;51.498;11.960;2023-07-28T13:34:49;5.00;;;2.00;;
29728;SDS011;20055;51.498;11.960;2023-07-28T13:37:17;3.00;;;1.40;;
29728;SDS011;20055;51.498;11.960;2023-07-28T13:39:44;3.38;;;1.50;;
29728;SDS011;20055;51.498;11.960;2023-07-28T13:42:11;1.90;;;1.30;;
29728;SDS011;20055;51.498;11.960;2023-07-28T13:44:38;2.78;;;1.10;;
29728;SDS011;20055;51.498;11.960;2023-07-28T13:47:04;3.63;;;1.50;;
29728;SDS011;20055;51.498;11.960;2023-07-28T13:52:24;1.35;;;1.20;;
29728;SDS011;20055;51.498;11.960;2023-07-28T13:54:51;5.53;;;1.50;;
29728;SDS011;20055;51.498;11.960;2023-07-28T13:57:17;1.77;;;1.45;;
29728;SDS011;20055;51.498;11.960;2023-07-28T13:59:44;1.98;;;1.30;;
29728;SDS011;20055;51.498;11.960;2023-07-28T14:02:10;2.45;;;1.65;;
29728;SDS011;20055;51.498;11.960;2023-07-28T14:04:36;5.43;;;1.17;;
29728;SDS011;20055;51.498;11.960;2023-07-28T14:07:03;2.58;;;1.63;;
29728;SDS011;20055;51.498;11.960;2023-07-28T14:09:29;2.08;;;1.40;;
29728;SDS011;20055;51.498;11.960;2023-07-28T14:11:55;2.72;;;1.40;;
29728;SDS011;20055;51.498;11.960;2023-07-28T14:14:22;2.63;;;1.38;;
29728;SDS011;20055;51.498;11.960;2023-07-28T14:16:48;5.72;;;1.67;;
29728;SDS011;20055;51.498;11.960;2023-07-28T14:19:14;4.25;;;1.55;;
29728;SDS011;20055;51.498;11.960;2023-07-28T14:21:40;3.10;;;1.40;;
29728;SDS011;20055;51.498;11.960;2023-07-28T14:24:06;2.05;;;1.30;;
29728;SDS011;20055;51.498;11.960;2023-07-28T14:26:33;5.68;;;1.40;;
29728;SDS011;20055;51.498;11.960;2023-07-28T14:28:59;3.35;;;1.67;;
29728;SDS011;20055;51.498;11.960;2023-07-28T14:31:26;9.48;;;1.75;;
29728;SDS011;20055;51.498;11.960;2023-07-28T14:33:52;2.28;;;1.30;;
29728;SDS011;20055;51.498;11.960;2023-07-28T14:36:18;10.07;;;1.48;;
29728;SDS011;20055;51.498;11.960;2023-07-28T14:38:44;19.48;;;1.70;;
29728;SDS011;20055;51.498;11.960;2023-07-28T14:41:11;5.60;;;1.55;;
29728;SDS011;20055;51.498;11.960;2023-07-28T14:43:37;5.20;;;1.48;;
29728;SDS011;20055;51.498;11.960;2023-07-28T14:46:03;2.13;;;1.50;;
29728;SDS011;20055;51.498;11.960;2023-07-28T14:48:30;5.05;;;1.73;;
29728;SDS011;20055;51.498;11.960;2023-07-28T14:50:56;7.82;;;1.95;;
29728;SDS011;20055;51.498;11.960;2023-07-28T14:55:59;4.25;;;1.60;;
29728;SDS011;20055;51.498;11.960;2023-07-28T14:58:27;9.43;;;2.97;;